AirNav   Airventure
 
 567 users online  

23FL Gyro Town USA Airport
Wimauma, Florida, USA

GOING TO WIMAUMA?


FAA INFORMATION EFFECTIVE 20 JULY 2017

Location

FAA Identifier: 23FL
Lat/Long: 27-41-04.0000N / 082-14-39.0000W
27-41.066667N / 082-14.650000W
27.6844444 / -82.2441667
(estimated)
Elevation: 65 ft. / 20 m (estimated)
From city: 5 miles W of WIMAUMA, FL
Time zone: UTC -4 (UTC -5 during Standard Time)
Zip code: 33547

Airport Operations

Airport use: Private use. Permission required prior to landing
Activation date: 03/2004
Control tower: no
ARTCC: MIAMI CENTER
FSS: SAINT PETERSBURG FLIGHT SERVICE STATION
Attendance: UNATNDD
Segmented circle: no

Airport Communications

WX AWOS-3 at TPF (18 nm NW): 118.925 (813-251-6824)
WX AWOS-3 at PCM (19 nm N): 120.025 (813-764-8259)

Nearby radio navigation aids

VOR radial/distance  VOR name  Freq  Var
LALr213/21.8LAKELAND VORTAC116.0001E
SRQr051/23.8SARASOTA VOR/DME117.0005W
PIEr125/26.9ST PETERSBURG VORTAC116.4005W

Airport Services

Runway Information

Runway 9/27

Dimensions: 2188 x 100 ft. / 667 x 30 m
Surface: turf
RUNWAY 9  RUNWAY 27
Traffic pattern: leftleft

Airport Ownership and Management from official FAA records

Ownership: Privately-owned
Owner: ERNEST BOYETTE
19242 GRANGE HALL LP
WIMAUMA, FL 33598
Phone 813-634-3370
Manager: ERNEST BOYETTE
19242 GRANGE HALL LP
WIMAUMA, FL 33598
Phone 813-634-3370

Instrument Procedures

There are no published instrument procedures at 23FL.

Some nearby airports with instrument procedures:

KTPF - Peter O Knight Airport (18 nm NW)
KMCF - MacDill Air Force Base (18 nm NW)
KPCM - Plant City Airport (19 nm N)
KVDF - Tampa Executive Airport (20 nm N)
KSPG - Albert Whitted Airport (21 nm W)
 
Loc | Ops | Rwys | IFR | FBO | Links
Com | Nav | Svcs | Stats | Notes


 
Area around 23FL (Gyro Town USA Airport)
 
Road maps at: MapQuest Bing Google
 
Aerial photo
No photo
 
Sectional chart

 
Airport distance calculator
Flying to Gyro Town USA Airport? Find the distance to fly.

From to 23FL

Sunrise and sunset
Times for 21-Jul-2017
 Local
(UTC-4)
 Zulu
(UTC)
Morning civil twilight06:2110:21
Sunrise06:4710:47
Sunset20:2400:24
Evening civil twilight20:4900:49

Current date and time
Zulu (UTC)  21-Jul-2017 11:03:57
Local (UTC-4)  21-Jul-2017 07:03:57
 
METAR
KMCF 
18nm NW 
211008Z AUTO 07005KT 10SM VCTS FEW048 25/25 A3002 RMK AO2 TSE08 SLP169 $
KTPF 
18nm NW 
211055Z AUTO 09004KT 10SM OVC110 26/26 A3003 RMK AO2
KPCM 
19nm N 
211055Z AUTO 00000KT 4SM BR CLR 24/24 A3006 RMK AO2
KVDF 
21nm N 
211055Z AUTO 00000KT 5SM BR CLR 24/22 A3004 RMK AO2
KLAL 
21nm NE 
211045Z 05003KT 2SM BR BKN003 24/24 A3004
KSPG 
21nm W 
211053Z 13005KT 10SM CLR 27/24 A3001 RMK AO2 LTG DSNT SE AND S SLP161 T02720244
KTPA 
23nm NW 
211053Z 00000KT 9SM FEW020 SCT120 BKN250 26/24 A3003 RMK AO2 RAB0955E11 SLP168 OCNL LTGIC DSNT S CB DSNT S AND NW P0000 T02560239
KSRQ 
24nm SW 
211053Z 07004KT 10SM TS FEW043 SCT110 25/24 A3001 RMK AO2 LTG DSNT ALQDS TSB49 SLP162 T02500239
KPIE 
27nm NW 
211053Z 00000KT 8SM CLR 26/24 A3002 RMK AO2 SLP166 T02610244
KBOW 
29nm NE 
211055Z AUTO 00000KT 9SM CLR 23/ A3004 RMK AO2 LTG DSNT S AND SW FZRANO
TAF
KMCF 
18nm NW 
210920Z 2109/2214 VRB06KT 9999 FEW007 SCT030 QNH3000INS TEMPO 2109/2111 6000 -TSRA SCT007 BKN025CB BECMG 2114/2115 25009KT 8000 -SHRA SCT025 QNH2998INS TEMPO 2118/2202 VRB12G18KT 4800 -TSRA BKN025CB BECMG 2201/2202 16009KT 9999 NSW SCT020 QNH3000INS TX33/2120Z TN24/2112Z
KLAL 
21nm NE 
210523Z 2106/2206 VRB03KT P6SM FEW250 FM211700 22004KT P6SM VCTS BKN035CB FM220200 VRB03KT P6SM SCT250 AMD NOT SKED TIL 211100
NOTAMs
Click for the latest NOTAMs
NOTAMs are issued by the DoD/FAA and will open in a separate window not controlled by AirNav.

 

 
 

Would you like to see your business listed on this page?

 If your business provides an interesting product or service to pilots, flight crews, aircraft, or users of the Gyro Town USA Airport, you should consider listing it here.  To start the listing process, click on the button below
 
Add a business
 

Other Pages about Gyro Town USA Airport

Update a link
 
Copyright © AirNav, LLC. All rights reserved. Privacy Policy  Contact